K-storm — V2DV8 — position and weather

sailwx.info

Track history (hours):
 
Tides and Currents Weather Stations Pressure Air Temp Water Temp Dewpoint Dewpoint Depression Visibility Wind Speed Wind Dir Waves Ship Positions

K-storm

Last reported at 2014-Nov-22 05:30 UTC. Time now 2014-Nov-26 06:36 UTC.
Position N 25°03' W 080°11'.

Length 139 m; draft 7.3 m.

Type: Ship. MMSI: 305350000.

Date/timePositionNaut miles runAvg speedWind from/ knotsBaromVisibWave heightAir tempDewpointWater temp
2014-Nov-22 05:30N 25°03' W 080°11'1412.4
2014-Nov-22 04:24N 25°15' W 080°04'1512.2
2014-Nov-22 03:12N 25°29' W 080°01'913.8
2014-Nov-22 02:33N 25°38' W 080°01'1414.0
2014-Nov-22 01:33N 25°52' W 080°02'1313.2
2014-Nov-22 00:33N 26°05' W 080°05'2 1.9
2014-Nov-21 23:31N 26°04' W 080°07'0 0.0
2014-Nov-21 22:27N 26°04' W 080°07'0 0.0
2014-Nov-21 21:33N 26°04' W 080°07'0 0.0
2014-Nov-21 20:29N 26°04' W 080°07'0 0.0
2014-Nov-21 19:32N 26°04' W 080°07'0 0.0
2014-Nov-21 18:32N 26°04' W 080°07'0 0.0
2014-Nov-21 17:22N 26°04' W 080°07'0 0.0
2014-Nov-21 16:31N 26°04' W 080°07'0 0.0
2014-Nov-21 15:27N 26°04' W 080°07'0 0.0
2014-Nov-21 14:33N 26°04' W 080°07'0 0.0
2014-Nov-21 13:26N 26°04' W 080°07'0 0.0
2014-Nov-21 12:32N 26°04' W 080°07'0 0.0
2014-Nov-21 11:32N 26°04' W 080°07'0 0.0
2014-Nov-21 10:22N 26°04' W 080°07'0 0.0
2014-Nov-21 09:31N 26°04' W 080°07'0 0.0
2014-Nov-21 08:24N 26°04' W 080°07'0 0.0
2014-Nov-21 07:33N 26°04' W 080°07'0 0.0
2014-Nov-21 06:29N 26°04' W 080°07'0 0.4
2014-Nov-21 05:33N 26°04' W 080°07'5 4.8
2014-Nov-21 04:33N 26°05' W 080°02'1312.6
2014-Nov-21 03:33N 25°53' W 079°59'1817.5
2014-Nov-21 02:33N 25°35' W 079°58'  
2014-Nov-14 12:19N 24°58' W 080°14'1316.3
2014-Nov-14 11:33N 25°09' W 080°07'1515.5
2014-Nov-14 10:33N 25°23' W 080°00'1514.9
2014-Nov-14 09:33N 25°37' W 080°02'1615.6
2014-Nov-14 08:33N 25°53' W 080°02'1313.0
2014-Nov-14 07:33N 26°06' W 080°06'2 1.8
2014-Nov-14 06:33N 26°04' W 080°07'0 0.0
2014-Nov-14 05:33N 26°04' W 080°07'0 0.0
2014-Nov-14 04:33N 26°04' W 080°07'0 0.0
2014-Nov-14 03:33N 26°04' W 080°07'0 0.0
2014-Nov-14 02:33N 26°04' W 080°07'0 0.0
2014-Nov-14 01:33N 26°04' W 080°07'0 0.0
2014-Nov-14 00:33N 26°04' W 080°07'0 0.0
2014-Nov-13 23:33N 26°04' W 080°07'0 0.0
2014-Nov-13 22:33N 26°04' W 080°07'0 0.0
2014-Nov-13 21:33N 26°04' W 080°07'0 0.0
2014-Nov-13 20:33N 26°04' W 080°07'0 0.0
2014-Nov-13 19:34N 26°04' W 080°07'0 0.0
2014-Nov-13 18:33N 26°04' W 080°07'0 0.0
2014-Nov-13 17:33N 26°04' W 080°07'0 0.0
2014-Nov-13 16:33N 26°04' W 080°07'0 0.0
2014-Nov-13 15:33N 26°04' W 080°07'0 0.0
2014-Nov-13 14:33N 26°04' W 080°07'0 0.0
2014-Nov-13 13:33N 26°04' W 080°07'0 0.0
2014-Nov-13 12:33N 26°04' W 080°07'0 0.0
2014-Nov-13 11:33N 26°04' W 080°07'0 0.0
2014-Nov-13 10:33N 26°04' W 080°07'0 0.0
2014-Nov-13 09:33N 26°04' W 080°07'0 0.0
2014-Nov-13 08:34N 26°04' W 080°07'1 1.2
2014-Nov-13 07:34N 26°05' W 080°07'8 8.1
2014-Nov-13 06:33N 26°01' W 079°59'1111.3
2014-Nov-13 05:33N 25°53' W 079°50'1211.8
2014-Nov-13 04:33N 25°44' W 079°42'  
Track history (hours):
 
Tides and Currents Weather Stations Pressure Air Temp Water Temp Dewpoint Dewpoint Depression Visibility Wind Speed Wind Dir Waves Ship Positions

K-storm

Last reported at 2014-Nov-22 05:30 UTC. Time now 2014-Nov-26 06:36 UTC.
Position N 25°03' W 080°11'.

Length 139 m; draft 7.3 m.

Type: Ship. MMSI: 305350000.

Date/timePositionNaut miles runAvg speedWind from/ knotsBaromVisibWave heightAir tempDewpointWater temp
2014-Nov-22 05:30N 25°03' W 080°11'1412.4
2014-Nov-22 04:24N 25°15' W 080°04'1512.2
2014-Nov-22 03:12N 25°29' W 080°01'913.8
2014-Nov-22 02:33N 25°38' W 080°01'1414.0
2014-Nov-22 01:33N 25°52' W 080°02'1313.2
2014-Nov-22 00:33N 26°05' W 080°05'2 1.9
2014-Nov-21 23:31N 26°04' W 080°07'0 0.0
2014-Nov-21 22:27N 26°04' W 080°07'0 0.0
2014-Nov-21 21:33N 26°04' W 080°07'0 0.0
2014-Nov-21 20:29N 26°04' W 080°07'0 0.0
2014-Nov-21 19:32N 26°04' W 080°07'0 0.0
2014-Nov-21 18:32N 26°04' W 080°07'0 0.0
2014-Nov-21 17:22N 26°04' W 080°07'0 0.0
2014-Nov-21 16:31N 26°04' W 080°07'0 0.0
2014-Nov-21 15:27N 26°04' W 080°07'0 0.0
2014-Nov-21 14:33N 26°04' W 080°07'0 0.0
2014-Nov-21 13:26N 26°04' W 080°07'0 0.0
2014-Nov-21 12:32N 26°04' W 080°07'0 0.0
2014-Nov-21 11:32N 26°04' W 080°07'0 0.0
2014-Nov-21 10:22N 26°04' W 080°07'0 0.0
2014-Nov-21 09:31N 26°04' W 080°07'0 0.0
2014-Nov-21 08:24N 26°04' W 080°07'0 0.0
2014-Nov-21 07:33N 26°04' W 080°07'0 0.0
2014-Nov-21 06:29N 26°04' W 080°07'0 0.4
2014-Nov-21 05:33N 26°04' W 080°07'5 4.8
2014-Nov-21 04:33N 26°05' W 080°02'1312.6
2014-Nov-21 03:33N 25°53' W 079°59'1817.5
2014-Nov-21 02:33N 25°35' W 079°58'  
2014-Nov-14 12:19N 24°58' W 080°14'1316.3
2014-Nov-14 11:33N 25°09' W 080°07'1515.5
2014-Nov-14 10:33N 25°23' W 080°00'1514.9
2014-Nov-14 09:33N 25°37' W 080°02'1615.6
2014-Nov-14 08:33N 25°53' W 080°02'1313.0
2014-Nov-14 07:33N 26°06' W 080°06'2 1.8
2014-Nov-14 06:33N 26°04' W 080°07'0 0.0
2014-Nov-14 05:33N 26°04' W 080°07'0 0.0
2014-Nov-14 04:33N 26°04' W 080°07'0 0.0
2014-Nov-14 03:33N 26°04' W 080°07'0 0.0
2014-Nov-14 02:33N 26°04' W 080°07'0 0.0
2014-Nov-14 01:33N 26°04' W 080°07'0 0.0
2014-Nov-14 00:33N 26°04' W 080°07'0 0.0
2014-Nov-13 23:33N 26°04' W 080°07'0 0.0
2014-Nov-13 22:33N 26°04' W 080°07'0 0.0
2014-Nov-13 21:33N 26°04' W 080°07'0 0.0
2014-Nov-13 20:33N 26°04' W 080°07'0 0.0
2014-Nov-13 19:34N 26°04' W 080°07'0 0.0
2014-Nov-13 18:33N 26°04' W 080°07'0 0.0
2014-Nov-13 17:33N 26°04' W 080°07'0 0.0
2014-Nov-13 16:33N 26°04' W 080°07'0 0.0
2014-Nov-13 15:33N 26°04' W 080°07'0 0.0
2014-Nov-13 14:33N 26°04' W 080°07'0 0.0
2014-Nov-13 13:33N 26°04' W 080°07'0 0.0
2014-Nov-13 12:33N 26°04' W 080°07'0 0.0
2014-Nov-13 11:33N 26°04' W 080°07'0 0.0
2014-Nov-13 10:33N 26°04' W 080°07'0 0.0
2014-Nov-13 09:33N 26°04' W 080°07'0 0.0
2014-Nov-13 08:34N 26°04' W 080°07'1 1.2
2014-Nov-13 07:34N 26°05' W 080°07'8 8.1
2014-Nov-13 06:33N 26°01' W 079°59'1111.3
2014-Nov-13 05:33N 25°53' W 079°50'1211.8
2014-Nov-13 04:33N 25°44' W 079°42'  

Dump ship's entire track history